createdAt,value
2022-10-11T06:18:16.564Z,49.60
2022-10-11T06:21:05.589Z,49.00
2022-10-11T06:23:46.551Z,48.90
2022-10-11T06:26:33.594Z,48.80
2022-10-11T06:29:13.527Z,48.60
2022-10-11T06:32:00.613Z,48.50
2022-10-11T06:34:40.534Z,48.30
2022-10-11T06:37:21.057Z,48.30
2022-10-11T06:40:07.541Z,48.20
2022-10-11T06:42:55.525Z,48.10
2022-10-11T06:45:35.616Z,48.10
2022-10-11T06:48:22.554Z,47.90
2022-10-11T06:51:10.559Z,47.70
2022-10-11T06:54:02.538Z,47.80
2022-10-11T06:56:49.584Z,47.50
2022-10-11T06:59:29.750Z,47.50
2022-10-11T07:02:16.537Z,47.60
2022-10-11T07:05:10.562Z,47.30
2022-10-11T07:07:57.636Z,47.40
2022-10-11T07:10:37.557Z,47.20
2022-10-11T07:13:24.585Z,47.30
2022-10-11T07:16:19.613Z,47.00
2022-10-11T07:19:08.613Z,47.00
2022-10-11T07:21:48.545Z,46.80
2022-10-11T07:24:29.166Z,46.70
2022-10-11T07:27:15.532Z,46.50
2022-10-11T07:30:02.599Z,46.40
2022-10-11T07:32:42.555Z,46.50
2022-10-11T07:35:23.037Z,46.20
2022-10-11T07:38:09.560Z,46.10
2022-10-11T07:40:49.662Z,45.90
2022-10-11T07:43:36.566Z,46.00
2022-10-11T07:46:24.584Z,45.60
2022-10-11T07:49:04.619Z,45.40
2022-10-11T07:51:52.559Z,45.20
2022-10-11T07:54:33.631Z,44.90
2022-10-11T07:57:21.621Z,44.50
2022-10-11T08:00:01.608Z,44.10
2022-10-11T08:02:51.563Z,43.80
2022-10-11T08:05:31.732Z,43.40
2022-10-11T08:08:18.570Z,43.30
2022-10-11T08:11:05.556Z,43.10
2022-10-11T08:13:52.632Z,42.80
2022-10-11T08:16:39.565Z,42.30
2022-10-11T08:19:26.546Z,41.50
2022-10-11T08:22:07.182Z,40.80
2022-10-11T08:24:53.549Z,39.60
2022-10-11T08:27:40.621Z,38.90
2022-10-11T08:30:20.575Z,37.80
2022-10-11T08:33:08.720Z,37.10
2022-10-11T08:35:55.575Z,36.20
2022-10-11T08:38:44.614Z,36.00
2022-10-11T08:41:36.589Z,35.60
2022-10-11T08:45:08.952Z,35.10
2022-10-11T08:47:58.569Z,34.80
2022-10-11T08:50:46.734Z,34.10
2022-10-11T08:53:49.574Z,33.40
2022-10-11T08:56:39.927Z,33.10
2022-10-11T08:59:19.554Z,32.70
2022-10-11T09:03:02.880Z,32.40
2022-10-11T09:05:41.599Z,32.40
2022-10-11T09:08:48.557Z,32.80
2022-10-11T09:11:56.620Z,32.00
2022-10-11T09:15:02.601Z,31.20
2022-10-11T09:18:16.582Z,30.90
2022-10-11T09:21:19.576Z,30.80
2022-10-11T09:24:17.608Z,30.60
2022-10-11T09:27:11.589Z,30.20
2022-10-11T09:29:54.685Z,30.00
2022-10-11T09:32:46.574Z,30.00
2022-10-11T09:35:35.578Z,29.80
2022-10-11T09:38:34.607Z,29.60
2022-10-11T09:41:23.565Z,29.60
2022-10-11T09:44:13.658Z,29.40
2022-10-11T09:46:55.603Z,29.40
2022-10-11T09:49:40.305Z,29.30
2022-10-11T09:52:32.601Z,29.20
2022-10-11T09:55:40.708Z,29.00
2022-10-11T09:58:46.587Z,29.00
2022-10-11T10:01:33.675Z,28.90
2022-10-11T10:04:17.574Z,28.70
2022-10-11T10:07:12.810Z,28.60
2022-10-11T10:09:59.569Z,28.80
2022-10-11T10:12:46.630Z,29.00
2022-10-11T10:15:26.576Z,29.40
2022-10-11T10:18:14.295Z,29.50
2022-10-11T10:20:59.577Z,29.70
2022-10-11T10:23:47.600Z,29.70
2022-10-11T10:26:39.577Z,29.70
2022-10-11T10:29:27.572Z,29.60
2022-10-11T10:32:28.091Z,29.40
2022-10-11T10:35:39.581Z,29.20
2022-10-11T10:38:33.696Z,29.10
2022-10-11T10:41:19.593Z,28.80
2022-10-11T10:44:07.585Z,28.90
2022-10-11T10:47:16.639Z,29.20
2022-10-11T10:50:24.571Z,29.60
2022-10-11T10:53:31.641Z,29.90
2022-10-11T10:57:02.603Z,30.20
2022-10-11T11:00:05.588Z,30.70
2022-10-11T11:03:11.590Z,31.00
2022-10-11T11:06:13.644Z,32.40
2022-10-11T11:09:09.597Z,31.50
2022-10-11T11:12:24.602Z,31.60
2022-10-11T11:15:37.951Z,31.90
2022-10-11T11:18:47.602Z,32.20
2022-10-11T11:21:49.767Z,32.30
2022-10-11T11:25:03.644Z,32.50
2022-10-11T11:28:02.660Z,32.60
2022-10-11T11:31:05.831Z,32.80
2022-10-11T11:34:06.646Z,32.80
2022-10-11T11:37:02.612Z,32.90
2022-10-11T11:39:55.597Z,33.10
2022-10-11T11:42:50.691Z,33.20
2022-10-11T11:46:02.603Z,33.50
2022-10-11T11:48:50.641Z,33.60
2022-10-11T11:51:52.638Z,33.60
2022-10-11T11:54:47.985Z,33.60
2022-10-11T11:58:13.592Z,33.90
2022-10-11T12:01:21.586Z,33.90
2022-10-11T12:04:05.665Z,34.00
2022-10-11T12:07:22.398Z,34.00
2022-10-11T12:10:29.863Z,34.00
2022-10-11T12:13:36.638Z,33.80
2022-10-11T12:16:19.667Z,33.50
2022-10-11T12:19:09.606Z,33.30
2022-10-11T12:21:51.662Z,33.20
2022-10-11T12:25:01.607Z,33.00
2022-10-11T12:27:56.591Z,33.20
2022-10-11T12:30:53.616Z,33.30
2022-10-11T12:33:39.647Z,33.60
2022-10-11T12:36:38.631Z,33.40
2022-10-11T12:39:34.585Z,33.30
2022-10-11T12:42:26.690Z,33.30
2022-10-11T12:45:25.599Z,33.40
2022-10-11T12:48:27.441Z,33.60
2022-10-11T12:51:36.617Z,33.60
2022-10-11T12:54:59.612Z,33.80
2022-10-11T12:58:15.675Z,34.00
2022-10-11T13:00:58.696Z,34.10
2022-10-11T13:03:48.611Z,34.00
2022-10-11T13:06:48.608Z,33.90
2022-10-11T13:09:48.934Z,33.80
2022-10-11T13:12:30.621Z,33.90
2022-10-11T13:15:18.201Z,33.90
2022-10-11T13:18:04.618Z,33.90
2022-10-11T13:20:51.712Z,34.00
2022-10-11T13:23:36.622Z,34.10
2022-10-11T13:26:17.165Z,34.20
2022-10-11T13:29:03.621Z,34.40
2022-10-11T13:31:54.734Z,34.40
2022-10-11T13:34:35.633Z,34.50
2022-10-11T13:37:26.717Z,34.60
2022-10-11T13:40:06.620Z,34.60
2022-10-11T13:42:48.667Z,34.70
2022-10-11T13:45:38.622Z,34.60
2022-10-11T13:48:30.770Z,34.60
2022-10-11T13:51:20.614Z,34.70
2022-10-11T13:54:14.109Z,34.60
2022-10-11T13:56:59.618Z,34.70
2022-10-11T13:59:49.629Z,34.80
2022-10-11T14:02:31.720Z,34.90
2022-10-11T14:05:33.749Z,35.00
2022-10-11T14:08:49.760Z,35.00
2022-10-11T14:11:42.669Z,35.10
2022-10-11T14:14:44.635Z,35.10
2022-10-11T14:17:57.726Z,35.20
2022-10-11T14:20:46.639Z,35.30
2022-10-11T14:23:26.753Z,35.30
2022-10-11T14:26:18.656Z,35.30
2022-10-11T14:29:07.867Z,35.40
2022-10-11T14:31:55.637Z,35.40
2022-10-11T14:34:43.631Z,35.40
2022-10-11T14:37:24.544Z,35.50
2022-10-11T14:40:11.642Z,35.50
2022-10-11T14:42:59.910Z,35.50
2022-10-11T14:45:39.650Z,35.50
2022-10-11T14:48:50.358Z,35.60
2022-10-11T14:51:30.653Z,35.70
2022-10-11T14:54:11.526Z,35.70
2022-10-11T14:56:59.629Z,35.70
2022-10-11T14:59:40.354Z,35.80
2022-10-11T15:02:26.646Z,35.80
2022-10-11T15:05:07.578Z,35.80
2022-10-11T15:07:54.641Z,35.80
2022-10-11T15:10:47.702Z,36.00
2022-10-11T15:13:28.642Z,36.00
2022-10-11T15:16:18.625Z,36.00
2022-10-11T15:19:05.676Z,36.00
2022-10-11T15:21:45.651Z,36.00
2022-10-11T15:24:27.879Z,36.00
2022-10-11T15:27:14.652Z,37.10
2022-10-11T15:29:55.261Z,36.10
2022-10-11T15:32:41.625Z,36.20
2022-10-11T15:35:31.686Z,36.20
2022-10-11T15:38:18.641Z,36.10
2022-10-11T15:40:59.639Z,36.10
2022-10-11T15:43:47.695Z,36.10
2022-10-11T15:46:34.698Z,36.20
2022-10-11T15:49:19.645Z,36.30
2022-10-11T15:52:06.730Z,36.30
2022-10-11T15:54:46.649Z,36.30
2022-10-11T15:57:33.708Z,36.30
2022-10-11T16:00:17.577Z,36.30
2022-10-11T16:03:07.658Z,36.50
2022-10-11T16:05:48.740Z,36.40
2022-10-11T16:08:35.647Z,36.50
2022-10-11T16:11:16.715Z,36.50
2022-10-11T16:14:03.630Z,36.60
2022-10-11T16:16:43.723Z,36.70
2022-10-11T16:19:30.642Z,36.70
2022-10-11T16:22:10.745Z,36.80
2022-10-11T16:24:57.666Z,36.80
2022-10-11T16:27:38.697Z,36.90
2022-10-11T16:30:26.660Z,37.00
2022-10-11T16:33:13.632Z,37.10
2022-10-11T16:36:20.694Z,37.10
2022-10-11T16:39:00.637Z,37.30
2022-10-11T16:41:48.625Z,37.40
2022-10-11T16:44:29.725Z,37.60
2022-10-11T16:47:16.639Z,37.50
2022-10-11T16:49:56.823Z,37.60
2022-10-11T16:52:43.660Z,37.60
2022-10-11T16:55:30.665Z,37.70
2022-10-11T16:58:11.187Z,37.70
2022-10-11T17:00:57.707Z,37.80
2022-10-11T17:03:44.725Z,37.90
2022-10-11T17:06:25.663Z,38.00
2022-10-11T17:09:06.901Z,38.10
2022-10-11T17:11:54.654Z,38.10
2022-10-11T17:14:35.593Z,38.10
2022-10-11T17:17:23.650Z,38.20
2022-10-11T17:20:10.666Z,38.20
2022-10-11T17:22:57.670Z,38.40
2022-10-11T17:25:49.649Z,38.50
2022-10-11T17:28:29.813Z,38.50
2022-10-11T17:31:16.663Z,38.40
2022-10-11T17:33:57.703Z,38.50
2022-10-11T17:36:44.674Z,38.60
2022-10-11T17:39:27.747Z,39.80
2022-10-11T17:42:14.656Z,38.90
2022-10-11T17:44:54.720Z,39.00
2022-10-11T17:47:41.654Z,39.00
2022-10-11T17:50:21.714Z,38.90
2022-10-11T17:53:08.639Z,38.90
2022-10-11T17:55:50.381Z,39.00
2022-10-11T17:58:36.669Z,39.10
2022-10-11T18:01:19.872Z,39.20
2022-10-11T18:04:09.654Z,39.30
2022-10-11T18:06:58.675Z,39.40
2022-10-11T18:09:45.719Z,39.60
2022-10-11T18:12:25.638Z,39.70
2022-10-11T18:15:12.885Z,39.90
2022-10-11T18:18:06.651Z,40.00
2022-10-11T18:20:55.749Z,40.20
2022-10-11T18:23:35.653Z,40.30
2022-10-11T18:26:30.442Z,40.40
2022-10-11T18:29:11.659Z,40.60
2022-10-11T18:31:58.749Z,40.70
2022-10-11T18:34:38.667Z,40.80
2022-10-11T18:37:25.701Z,40.80
2022-10-11T18:40:05.661Z,41.00
2022-10-11T18:42:52.696Z,41.00
2022-10-11T18:45:32.645Z,41.10
2022-10-11T18:48:19.736Z,41.20
2022-10-11T18:51:09.113Z,41.40
2022-10-11T18:53:50.369Z,41.50
2022-10-11T18:56:36.659Z,41.60
2022-10-11T18:59:17.350Z,41.50
2022-10-11T19:02:03.669Z,41.60
2022-10-11T19:04:44.136Z,41.60
2022-10-11T19:07:30.668Z,41.60
2022-10-11T19:10:17.701Z,41.60
2022-10-11T19:12:57.677Z,41.70
2022-10-11T19:15:44.713Z,41.80
2022-10-11T19:18:31.683Z,42.00
2022-10-11T19:21:14.714Z,42.00
2022-10-11T19:24:02.655Z,42.00
2022-10-11T19:26:52.708Z,42.10
2022-10-11T19:29:40.688Z,42.20
2022-10-11T19:32:20.785Z,42.30
2022-10-11T19:35:07.669Z,42.40
2022-10-11T19:37:47.728Z,42.50
2022-10-11T19:40:34.685Z,42.50
2022-10-11T19:43:14.718Z,42.60
2022-10-11T19:46:09.711Z,42.60
2022-10-11T19:48:50.775Z,42.70
2022-10-11T19:51:41.696Z,42.80
2022-10-11T19:54:22.765Z,42.80
2022-10-11T19:57:09.661Z,42.80
2022-10-11T19:59:49.809Z,42.80
2022-10-11T20:02:36.677Z,42.90
2022-10-11T20:05:16.730Z,43.10
2022-10-11T20:08:03.673Z,43.20
2022-10-11T20:10:50.677Z,43.50
2022-10-11T20:13:37.722Z,43.60
2022-10-11T20:16:20.668Z,44.00
2022-10-11T20:19:14.674Z,44.10
2022-10-11T20:22:01.675Z,44.50
2022-10-11T20:24:48.686Z,45.60
2022-10-11T20:27:31.814Z,44.70
2022-10-11T20:30:18.985Z,45.10
2022-10-11T20:33:05.742Z,45.20
2022-10-11T20:35:45.690Z,45.50
2022-10-11T20:38:33.725Z,45.50
2022-10-11T20:41:18.670Z,45.70
2022-10-11T20:44:01.274Z,45.80
2022-10-11T20:46:50.680Z,45.90
2022-10-11T20:49:37.750Z,46.00
2022-10-11T20:52:24.710Z,46.10
2022-10-11T20:55:05.030Z,46.20
2022-10-11T20:57:51.690Z,46.00
2022-10-11T21:00:32.310Z,46.20
2022-10-11T21:03:19.907Z,46.50
2022-10-11T21:06:00.238Z,46.50
2022-10-11T21:08:47.672Z,46.70
2022-10-11T21:11:37.695Z,46.80
2022-10-11T21:14:24.669Z,47.00
2022-10-11T21:17:11.762Z,47.00
2022-10-11T21:19:58.670Z,47.00
2022-10-11T21:22:42.002Z,47.10
2022-10-11T21:25:28.693Z,47.10
2022-10-11T21:28:15.788Z,47.30
2022-10-11T21:31:08.685Z,47.30
2022-10-11T21:33:48.745Z,47.50
2022-10-11T21:36:35.704Z,47.30
2022-10-11T21:39:16.241Z,47.40
2022-10-11T21:42:02.706Z,47.60
2022-10-11T21:44:43.529Z,47.70
2022-10-11T21:47:31.487Z,47.80
2022-10-11T21:50:12.761Z,47.90
2022-10-11T21:52:59.676Z,48.00
2022-10-11T21:55:46.718Z,48.10
2022-10-11T21:58:34.760Z,48.30
2022-10-11T22:01:14.755Z,48.30
2022-10-11T22:03:55.234Z,48.30
2022-10-11T22:06:41.685Z,48.40
2022-10-11T22:09:28.694Z,48.30
2022-10-11T22:12:09.720Z,48.20
2022-10-11T22:14:56.678Z,48.20
2022-10-11T22:17:36.762Z,48.50
2022-10-11T22:20:23.687Z,48.50
2022-10-11T22:23:03.797Z,48.70
2022-10-11T22:25:51.673Z,48.80
2022-10-11T22:28:31.846Z,48.90
2022-10-11T22:31:19.751Z,48.90
2022-10-11T22:34:07.774Z,49.00
2022-10-11T22:36:47.744Z,49.00
2022-10-11T22:39:35.674Z,49.00
2022-10-11T22:42:26.873Z,49.20
2022-10-11T22:45:15.729Z,49.00
2022-10-11T22:47:55.837Z,49.10
2022-10-11T22:50:42.785Z,49.10
2022-10-11T22:53:22.705Z,49.10
2022-10-11T22:56:03.514Z,49.10
2022-10-11T22:58:49.695Z,49.30
2022-10-11T23:01:36.744Z,49.30
2022-10-11T23:04:16.677Z,49.40
2022-10-11T23:07:05.171Z,49.30
2022-10-11T23:09:44.730Z,49.40
2022-10-11T23:12:31.695Z,49.40
2022-10-11T23:15:11.759Z,49.40
2022-10-11T23:18:05.686Z,50.40
2022-10-11T23:20:52.801Z,49.50
2022-10-11T23:23:32.686Z,49.60
2022-10-11T23:26:23.828Z,49.50
2022-10-11T23:29:03.704Z,49.60
2022-10-11T23:31:46.249Z,49.50
2022-10-11T23:34:32.695Z,49.70
2022-10-11T23:37:19.686Z,49.70
2022-10-11T23:39:59.750Z,49.70
2022-10-11T23:42:46.685Z,49.60
2022-10-11T23:45:26.772Z,49.70
2022-10-11T23:48:13.685Z,49.60
2022-10-11T23:51:00.688Z,49.70
2022-10-11T23:53:48.801Z,49.60
2022-10-11T23:56:28.682Z,49.70
2022-10-11T23:59:09.446Z,49.80
